To NAV CANADA Home Page Login to a new session Search on AWWS site Feedback and Comments Disclaimer Vers la page française équivalente Tips FAQ What's new on the site To the Forecasts and Observations / NOTAM section To "File a Flight Plan" website Publications and other links Update of the User's profile FIC Telephone Numbers My Weather Data Folder Route Weather Data Regional Weather Data Local Weather Data To the Forecasts and Observations / NOTAM section
Request Generated 04/25/2014 at 02:24:52 UTC . Weather information available at that time is displayed.

METAR/TAF

RED DEER/RED DEER REGIONAL/AB    

METAR CYQF 250200Z 07013KT 15SM FEW090 BKN250 09/M02 A2966 RMK AC2CI2 SLP072=
METAR CYQF 250100Z 05013KT 15SM FEW090 BKN250 10/M01 A2966 RMK AC2CI2 SLP072=
METAR CYQF 250000Z 06005KT 15SM FEW062 FEW090 SCT250 10/M05 A2966 RMK CU1AC1CI2 SLP070=

TAF CYQF 242338Z 2500/2512 08012KT P6SM FEW050
FM250300 06008KT P6SM SCT030 BKN100
FM250800 06007KT P6SM BKN020 OVC080 TEMPO 2508/2510 BKN008 OVC015
FM251000 05007KT 5SM BR OVC010 TEMPO 2510/2512 2SM -RASN BR
OVC006 PROB30 2510/2512 1/2SM FG VV003
RMK NXT FCST BY 250600Z=
Your time UTC time
Weather data provided by Environment Canada and NAV CANADA